Aviation Digital Data Service (ADDS)

Output produced by METARs form (0816 UTC 19 April 2019)
found at http://www.aviationweather.gov/metar/data/
 
Forecast for: WMKN (KUALA TRENGGANU , MY)
Text: TAF WMKN 190500Z 1906/2006 08007KT 9999 FEW022 BKN300
Forecast period: 0600 to 1400 UTC 19 April 2019
Forecast type: FROM: standard forecast or significant change
Winds: from the E (80 degrees) at 8 MPH (7 knots; 3.6 m/s)
Visibility: 6 or more miles 10+ km)
Ceiling: 30000 feet AGL
Clouds: few clouds at 2200 feet AGL
broken clouds at 30000 feet AGL
Weather: no significant weather forecast for this period
Text: BECMG 1914/1916 VRB03KT
Forecast period: 1400 to 2100 UTC 19 April 2019
Forecast type: BECOMING: Conditions expected to become as follows by 1600 UTC 19 April 2019
Winds: variable direction winds at 3 MPH (3 knots; 1.5 m/s)
Visibility: 6 or more miles 10+ km)
Ceiling: 30000 feet AGL
Clouds: few clouds at 2200 feet AGL
broken clouds at 30000 feet AGL
Weather: no significant weather forecast for this period
Text: BECMG 1921/1923 20005KT
Forecast period: 2100 UTC 19 April 2019 to 0600 UTC 20 April 2019
Forecast type: BECOMING: Conditions expected to become as follows by 2300 UTC 19 April 2019
Winds: from the SSW (200 degrees) at 6 MPH (5 knots; 2.6 m/s)
Visibility: 6 or more miles 10+ km)
Ceiling: 30000 feet AGL
Clouds: few clouds at 2200 feet AGL
broken clouds at 30000 feet AGL
Weather: no significant weather forecast for this period